Main page
METAR-TAF:

Airports :

Nice, France

Nice Côte d'Azur Airport

latitude: 43-39N, longitude: 007-12E, elevation: 4 m

Current weather observation

The report was made 25 minutes ago, at 01:00 UTC
Wind 6 kt from the Northwest
Temperature 24°C
Humidity 44%
Pressure 1021 hPa
Visibility 10 km or more
no clouds below 1500 m and no cumulonimbus

METAR: LFMN 240100Z 32006KT CAVOK 24/11 Q1021 NOSIG

Time: 03:25 (01:25 UTC)

Forecast

The report was made 5 hours and 25 minutes ago, at 20:00 UTC
Forecast valid from 23 at 21 UTC to 25 at 03 UTC
Wind 5 kt from the North/Northwest
Visibility 10 km or more
no clouds below 1500 m and no cumulonimbus
Becoming
from 24 at 07 UTC to 24 at 09 UTC
Wind 10 kt from the South/Southwest
Becoming
from 24 at 19 UTC to 24 at 21 UTC
Wind 5 kt from the North/Northwest

TAF: LFMN 232000Z 2321/2503 34005KT CAVOK BECMG 2407/2409 20010KT BECMG 2419/2421 34005KT

METAR-TAF

Weather observations and forecasts of more than 4000 airports (METAR and TAF reports).

The available stations are represented by yellow and red dots on the map.

Hover mouse over dot to see the name of the station.

Then click to see weather observations and forecasts.

To change the map : click on the green buttons with a black cross to zoom in, on the green button with a dash to zoom out, or on the green arrows for adjacent maps.


METAR-TAF: